createdAt,value
2017-07-27T00:01:27.001Z,16.90
2017-07-27T00:03:54.390Z,17.17
2017-07-27T00:06:21.821Z,17.27
2017-07-27T00:08:49.243Z,16.60
2017-07-27T00:11:16.640Z,17.30
2017-07-27T00:13:44.018Z,17.70
2017-07-27T00:16:11.460Z,17.20
2017-07-27T00:18:38.875Z,17.30
2017-07-27T00:21:06.302Z,16.63
2017-07-27T00:23:34.154Z,16.83
2017-07-27T00:26:01.564Z,17.23
2017-07-27T00:28:28.963Z,16.63
2017-07-27T00:30:56.521Z,17.73
2017-07-27T00:33:23.914Z,17.50
2017-07-27T00:35:51.338Z,17.87
2017-07-27T00:38:18.782Z,17.47
2017-07-27T00:40:46.182Z,16.47
2017-07-27T00:43:13.585Z,17.10
2017-07-27T00:45:40.982Z,16.30
2017-07-27T00:48:08.394Z,16.53
2017-07-27T00:50:35.791Z,15.60
2017-07-27T00:53:03.423Z,14.83
2017-07-27T00:55:30.815Z,15.40
2017-07-27T00:57:58.205Z,15.43
2017-07-27T01:00:25.655Z,14.83
2017-07-27T01:02:53.046Z,14.40
2017-07-27T01:05:20.687Z,14.90
2017-07-27T01:07:48.083Z,14.10
2017-07-27T01:10:15.478Z,13.50
2017-07-27T01:12:42.886Z,13.10
2017-07-27T01:15:10.300Z,14.17
2017-07-27T01:17:37.737Z,14.40
2017-07-27T01:20:05.132Z,12.80
2017-07-27T01:22:32.581Z,13.90
2017-07-27T01:24:59.986Z,13.73
2017-07-27T01:27:27.382Z,12.87
2017-07-27T01:29:54.879Z,13.40
2017-07-27T01:32:22.278Z,13.80
2017-07-27T01:34:49.666Z,14.23
2017-07-27T01:37:17.074Z,14.10
2017-07-27T01:39:44.494Z,12.93
2017-07-27T01:42:11.897Z,14.03
2017-07-27T01:44:39.362Z,14.37
2017-07-27T01:47:06.758Z,14.17
2017-07-27T01:49:34.150Z,14.60
2017-07-27T01:52:01.784Z,14.97
2017-07-27T01:54:29.204Z,14.97
2017-07-27T01:56:56.595Z,14.87
2017-07-27T01:59:24.102Z,15.53
2017-07-27T02:01:51.511Z,15.67
2017-07-27T02:04:18.910Z,16.50
2017-07-27T02:06:46.483Z,15.77
2017-07-27T02:09:13.868Z,16.03
2017-07-27T02:11:41.288Z,16.90
2017-07-27T02:14:08.689Z,14.60
2017-07-27T02:16:36.082Z,17.27
2017-07-27T02:19:03.473Z,15.93
2017-07-27T02:21:30.902Z,16.87
2017-07-27T02:23:58.336Z,16.70
2017-07-27T02:26:25.730Z,16.57
2017-07-27T02:28:53.173Z,17.10
2017-07-27T02:31:20.586Z,17.77
2017-07-27T02:33:47.974Z,17.07
2017-07-27T02:36:15.823Z,19.37
2017-07-27T02:38:43.222Z,17.53
2017-07-27T02:41:10.630Z,17.60
2017-07-27T02:43:38.050Z,16.77
2017-07-27T02:46:05.454Z,15.60
2017-07-27T02:48:32.857Z,14.77
2017-07-27T02:51:00.262Z,16.50
2017-07-27T02:53:27.659Z,15.30
2017-07-27T02:55:55.054Z,15.40
2017-07-27T02:58:22.602Z,15.40
2017-07-27T03:00:50.011Z,15.10
2017-07-27T03:03:17.427Z,15.23
2017-07-27T03:05:44.961Z,13.93
2017-07-27T03:08:12.374Z,13.27
2017-07-27T03:10:39.761Z,14.40
2017-07-27T03:13:07.462Z,14.50
2017-07-27T03:15:34.863Z,13.00
2017-07-27T03:18:02.279Z,13.73
2017-07-27T03:20:29.772Z,13.97
2017-07-27T03:22:57.184Z,13.80
2017-07-27T03:25:24.580Z,13.27
2017-07-27T03:27:52.080Z,13.67
2017-07-27T03:30:19.471Z,14.13
2017-07-27T03:32:46.871Z,12.97
2017-07-27T03:35:14.316Z,13.50
2017-07-27T03:37:41.705Z,14.60
2017-07-27T03:40:09.102Z,14.00
2017-07-27T03:42:36.689Z,15.50
2017-07-27T03:45:04.078Z,15.27
2017-07-27T03:47:31.474Z,16.27
2017-07-27T03:49:58.978Z,15.70
2017-07-27T03:52:26.374Z,15.10
2017-07-27T03:54:53.770Z,14.93
2017-07-27T03:57:21.779Z,15.93
2017-07-27T03:59:49.170Z,16.80
2017-07-27T04:02:16.599Z,17.40
2017-07-27T04:04:44.270Z,17.10
2017-07-27T04:07:11.685Z,15.60
2017-07-27T04:09:39.088Z,16.10
2017-07-27T04:12:06.534Z,15.90
2017-07-27T04:14:33.912Z,14.47
2017-07-27T04:17:01.310Z,15.73
2017-07-27T04:19:29.257Z,16.60
2017-07-27T04:21:56.651Z,16.87
2017-07-27T04:24:24.039Z,17.30
2017-07-27T04:26:51.617Z,18.00
2017-07-27T04:29:19.077Z,16.63
2017-07-27T04:31:46.499Z,15.47
2017-07-27T04:34:14.180Z,16.07
2017-07-27T04:36:41.569Z,16.80
2017-07-27T04:39:08.970Z,16.23
2017-07-27T04:41:36.602Z,16.47
2017-07-27T04:44:04.007Z,17.17
2017-07-27T04:46:31.426Z,15.87
2017-07-27T04:48:59.111Z,16.00
2017-07-27T04:51:26.503Z,15.47
2017-07-27T04:53:53.905Z,16.93
2017-07-27T04:56:21.690Z,16.77
2017-07-27T04:58:49.107Z,16.63
2017-07-27T05:01:16.506Z,17.30
2017-07-27T05:03:44.948Z,15.00
2017-07-27T05:06:12.357Z,16.03
2017-07-27T05:08:39.742Z,15.47
2017-07-27T05:11:07.174Z,16.90
2017-07-27T05:13:34.550Z,16.73
2017-07-27T05:16:01.947Z,17.77
2017-07-27T05:18:29.468Z,18.80
2017-07-27T05:20:56.870Z,15.70
2017-07-27T05:23:24.294Z,15.83
2017-07-27T05:25:51.739Z,15.77
2017-07-27T05:28:19.118Z,15.60
2017-07-27T05:30:46.531Z,16.80
2017-07-27T05:33:13.939Z,15.63
2017-07-27T05:35:41.324Z,15.83
2017-07-27T05:38:08.709Z,15.27
2017-07-27T05:40:36.134Z,15.37
2017-07-27T05:43:03.528Z,15.53
2017-07-27T05:45:30.958Z,14.90
2017-07-27T05:47:58.383Z,16.07
2017-07-27T05:50:25.777Z,17.23
2017-07-27T05:52:53.235Z,14.70
2017-07-27T05:55:20.990Z,15.27
2017-07-27T05:57:48.402Z,15.57
2017-07-27T06:00:15.814Z,14.27
2017-07-27T06:02:43.321Z,14.70
2017-07-27T06:05:10.729Z,14.90
2017-07-27T06:07:38.276Z,14.83
2017-07-27T06:10:05.966Z,14.00
2017-07-27T06:12:33.362Z,14.90
2017-07-27T06:15:00.754Z,14.67
2017-07-27T06:17:28.952Z,14.30
2017-07-27T06:19:56.342Z,14.23
2017-07-27T06:22:24.666Z,14.27
2017-07-27T06:24:53.344Z,13.33
2017-07-27T06:27:20.746Z,14.33
2017-07-27T06:29:48.174Z,14.80
2017-07-27T06:32:15.686Z,13.17
2017-07-27T06:34:43.089Z,14.33
2017-07-27T06:37:10.972Z,13.50
2017-07-27T06:39:38.914Z,15.07
2017-07-27T06:42:06.338Z,13.17
2017-07-27T06:44:33.733Z,14.07
2017-07-27T06:47:02.352Z,14.70
2017-07-27T06:49:30.067Z,14.63
2017-07-27T06:51:57.490Z,14.10
2017-07-27T06:54:25.703Z,14.03
2017-07-27T06:56:53.434Z,13.37
2017-07-27T06:59:21.786Z,13.63
2017-07-27T07:01:49.330Z,12.90
2017-07-27T07:04:16.720Z,13.83
2017-07-27T07:06:44.114Z,13.07
2017-07-27T07:09:11.557Z,13.10
2017-07-27T07:11:38.950Z,13.53
2017-07-27T07:14:06.342Z,12.73
2017-07-27T07:16:33.846Z,12.53
2017-07-27T07:19:01.269Z,13.47
2017-07-27T07:21:28.727Z,13.67
2017-07-27T07:23:56.170Z,12.20
2017-07-27T07:26:23.600Z,12.60
2017-07-27T07:28:51.003Z,13.23
2017-07-27T07:31:18.565Z,12.60
2017-07-27T07:33:45.980Z,10.60
2017-07-27T07:36:13.351Z,11.40
2017-07-27T07:38:40.953Z,11.37
2017-07-27T07:41:08.330Z,8.00
2017-07-27T07:43:35.725Z,7.67
2017-07-27T07:46:03.163Z,8.17
2017-07-27T07:48:30.537Z,8.20
2017-07-27T07:50:57.957Z,8.53
2017-07-27T07:53:25.498Z,7.63
2017-07-27T07:55:52.882Z,7.50
2017-07-27T07:58:20.264Z,7.00
2017-07-27T08:00:47.683Z,7.20
2017-07-27T08:03:15.128Z,7.50
2017-07-27T08:05:42.508Z,7.67
2017-07-27T08:08:10.026Z,7.17
2017-07-27T08:10:37.432Z,6.90
2017-07-27T08:13:04.898Z,7.80
2017-07-27T08:15:32.311Z,7.87
2017-07-27T08:17:59.710Z,7.17
2017-07-27T08:20:27.090Z,7.70
2017-07-27T08:22:54.543Z,7.03
2017-07-27T08:25:22.301Z,7.30
2017-07-27T08:27:49.666Z,7.30
2017-07-27T08:30:17.072Z,6.57
2017-07-27T08:32:44.467Z,6.87
2017-07-27T08:35:11.867Z,7.37
2017-07-27T08:37:39.310Z,7.50
2017-07-27T08:40:07.629Z,7.97
2017-07-27T08:42:36.182Z,7.27
2017-07-27T08:45:03.678Z,7.63
2017-07-27T08:47:31.069Z,6.80
2017-07-27T08:49:58.500Z,6.63
2017-07-27T08:52:26.098Z,7.00
2017-07-27T08:54:53.482Z,6.67
2017-07-27T08:57:20.891Z,9.33
2017-07-27T08:59:48.507Z,7.43
2017-07-27T09:02:15.882Z,7.60
2017-07-27T09:04:43.267Z,7.23
2017-07-27T09:07:11.042Z,7.50
2017-07-27T09:09:38.443Z,7.10
2017-07-27T09:12:05.830Z,7.00
2017-07-27T09:14:33.239Z,7.10
2017-07-27T09:17:00.617Z,6.97
2017-07-27T09:19:28.006Z,7.90
2017-07-27T09:21:55.526Z,7.23
2017-07-27T09:24:22.929Z,7.60
2017-07-27T09:26:50.321Z,7.60
2017-07-27T09:29:17.731Z,7.90
2017-07-27T09:31:45.115Z,8.00
2017-07-27T09:34:12.536Z,7.97
2017-07-27T09:36:40.366Z,8.90
2017-07-27T09:39:07.759Z,7.20
2017-07-27T09:41:35.169Z,7.40
2017-07-27T09:44:02.555Z,7.70
2017-07-27T09:46:29.938Z,8.47
2017-07-27T09:48:57.339Z,8.37
2017-07-27T09:51:24.857Z,8.50
2017-07-27T09:53:52.237Z,7.33
2017-07-27T09:56:19.626Z,7.50
2017-07-27T09:58:47.047Z,9.50
2017-07-27T10:01:14.451Z,8.77
2017-07-27T10:03:41.826Z,8.30
2017-07-27T10:06:09.641Z,8.17
2017-07-27T10:08:37.020Z,8.60
2017-07-27T10:11:04.415Z,8.40
2017-07-27T10:13:31.948Z,9.10
2017-07-27T10:15:59.333Z,7.93
2017-07-27T10:18:27.803Z,8.30
2017-07-27T10:20:55.436Z,9.33
2017-07-27T10:23:22.863Z,8.10
2017-07-27T10:25:51.068Z,9.13
2017-07-27T10:28:18.620Z,7.73
2017-07-27T10:30:46.030Z,8.40
2017-07-27T10:33:13.458Z,8.63
2017-07-27T10:35:41.934Z,9.50
2017-07-27T10:38:09.332Z,8.40
2017-07-27T10:40:36.734Z,9.10
2017-07-27T10:43:04.983Z,8.93
2017-07-27T10:45:32.384Z,8.93
2017-07-27T10:48:00.554Z,8.87
2017-07-27T10:50:28.163Z,9.17
2017-07-27T10:52:55.539Z,8.70
2017-07-27T10:55:22.983Z,9.13
2017-07-27T10:57:50.416Z,9.40
2017-07-27T11:00:17.827Z,8.83
2017-07-27T11:02:45.202Z,9.20
2017-07-27T11:05:12.778Z,11.07
2017-07-27T11:07:40.215Z,9.10
2017-07-27T11:10:07.609Z,9.13
2017-07-27T11:12:35.235Z,8.67
2017-07-27T11:15:02.652Z,9.27
2017-07-27T11:17:30.052Z,9.73
2017-07-27T11:19:57.882Z,9.10
2017-07-27T11:22:25.980Z,9.23
2017-07-27T11:24:53.366Z,8.90
2017-07-27T11:27:21.071Z,8.67
2017-07-27T11:29:48.504Z,8.33
2017-07-27T11:32:15.899Z,9.03
2017-07-27T11:34:43.435Z,9.40
2017-07-27T11:37:10.814Z,8.50
2017-07-27T11:39:38.242Z,9.10
2017-07-27T11:42:05.662Z,9.10
2017-07-27T11:44:33.049Z,9.00
2017-07-27T11:47:00.439Z,8.63
2017-07-27T11:49:27.963Z,9.27
2017-07-27T11:51:55.399Z,8.43
2017-07-27T11:54:22.806Z,9.00
2017-07-27T11:56:50.223Z,9.47
2017-07-27T11:59:17.619Z,9.50
2017-07-27T12:01:45.016Z,8.97
2017-07-27T12:04:14.262Z,10.30
2017-07-27T12:06:41.710Z,9.77
2017-07-27T12:09:09.105Z,9.80
2017-07-27T12:11:36.628Z,10.27
2017-07-27T12:14:04.001Z,9.80
2017-07-27T12:16:31.421Z,10.90
2017-07-27T12:18:58.872Z,12.17
2017-07-27T12:21:26.298Z,11.43
2017-07-27T12:23:53.713Z,10.07
2017-07-27T12:26:22.399Z,12.70
2017-07-27T12:28:50.555Z,12.40
2017-07-27T12:31:17.994Z,11.70
2017-07-27T12:33:46.398Z,11.10
2017-07-27T12:36:14.443Z,9.87
2017-07-27T12:38:41.835Z,10.53
2017-07-27T12:41:09.235Z,10.50
2017-07-27T12:43:36.637Z,11.93
2017-07-27T12:46:04.369Z,11.63
2017-07-27T12:48:31.925Z,10.67
2017-07-27T12:50:59.323Z,12.37
2017-07-27T12:53:26.741Z,11.17
2017-07-27T12:55:54.459Z,11.00
2017-07-27T12:58:21.896Z,12.53
2017-07-27T13:00:49.282Z,12.20
2017-07-27T13:03:16.893Z,12.10
2017-07-27T13:05:44.293Z,12.90
2017-07-27T13:08:11.678Z,12.07
2017-07-27T13:10:39.248Z,12.60
2017-07-27T13:13:06.635Z,15.13
2017-07-27T13:15:34.070Z,15.33
2017-07-27T13:18:01.613Z,15.07
2017-07-27T13:20:28.995Z,15.57
2017-07-27T13:22:56.407Z,11.47
2017-07-27T13:25:24.011Z,14.10
2017-07-27T13:27:51.432Z,17.40
2017-07-27T13:30:18.999Z,14.03
2017-07-27T13:32:46.626Z,11.73
2017-07-27T13:35:14.008Z,16.60
2017-07-27T13:37:41.434Z,11.53
2017-07-27T13:40:08.862Z,11.10
2017-07-27T13:42:36.328Z,13.63
2017-07-27T13:45:03.710Z,12.97
2017-07-27T13:47:31.298Z,13.30
2017-07-27T13:49:58.698Z,13.40
2017-07-27T13:52:26.103Z,11.80
2017-07-27T13:54:53.707Z,10.90
2017-07-27T13:57:21.102Z,12.00
2017-07-27T13:59:48.498Z,10.00
2017-07-27T14:02:15.934Z,14.00
2017-07-27T14:04:43.342Z,11.53
2017-07-27T14:07:10.746Z,10.10
2017-07-27T14:09:38.250Z,10.23
2017-07-27T14:12:05.660Z,11.47
2017-07-27T14:14:33.065Z,10.93
2017-07-27T14:17:00.488Z,12.60
2017-07-27T14:19:27.882Z,13.20
2017-07-27T14:21:55.288Z,13.03
2017-07-27T14:24:22.831Z,10.67
2017-07-27T14:26:50.239Z,11.47
2017-07-27T14:29:17.635Z,10.73
2017-07-27T14:31:45.139Z,12.10
2017-07-27T14:34:12.536Z,10.67
2017-07-27T14:36:39.960Z,10.50
2017-07-27T14:39:07.918Z,10.67
2017-07-27T14:41:35.380Z,11.63
2017-07-27T14:44:02.880Z,10.83
2017-07-27T14:46:30.694Z,10.23
2017-07-27T14:48:58.124Z,14.60
2017-07-27T14:51:25.508Z,10.17
2017-07-27T14:53:52.932Z,11.23
2017-07-27T14:56:20.332Z,12.33
2017-07-27T14:58:47.735Z,10.70
2017-07-27T15:01:15.244Z,11.20
2017-07-27T15:03:42.654Z,11.07
2017-07-27T15:06:10.058Z,10.93
2017-07-27T15:08:37.750Z,11.03
2017-07-27T15:11:05.134Z,14.50
2017-07-27T15:13:32.531Z,11.23
2017-07-27T15:15:59.922Z,12.50
2017-07-27T15:18:27.323Z,15.03
2017-07-27T15:20:54.726Z,10.10
2017-07-27T15:23:22.254Z,11.73
2017-07-27T15:25:49.650Z,10.53
2017-07-27T15:28:17.042Z,12.17
2017-07-27T15:30:44.461Z,9.93
2017-07-27T15:33:11.838Z,13.33
2017-07-27T15:35:39.243Z,11.27
2017-07-27T15:38:06.682Z,11.53
2017-07-27T15:40:34.084Z,9.90
2017-07-27T15:43:01.467Z,11.57
2017-07-27T15:45:28.898Z,15.40
2017-07-27T15:47:57.178Z,10.90
2017-07-27T15:50:24.585Z,11.53
2017-07-27T15:52:52.137Z,10.87
2017-07-27T15:55:19.843Z,12.00
2017-07-27T15:57:47.254Z,9.80
2017-07-27T16:00:16.002Z,12.50
2017-07-27T16:02:44.096Z,14.20
2017-07-27T16:05:11.490Z,10.57
2017-07-27T16:07:39.050Z,9.40
2017-07-27T16:10:06.466Z,10.43
2017-07-27T16:12:33.848Z,14.23
2017-07-27T16:15:02.354Z,12.20
2017-07-27T16:17:29.774Z,10.80
2017-07-27T16:19:57.738Z,10.53
2017-07-27T16:22:26.030Z,12.00
2017-07-27T16:24:53.466Z,11.43
2017-07-27T16:27:20.854Z,13.50
2017-07-27T16:29:48.414Z,11.20
2017-07-27T16:32:15.828Z,11.23
2017-07-27T16:34:43.237Z,10.83
2017-07-27T16:37:10.634Z,10.77
2017-07-27T16:39:38.059Z,10.37
2017-07-27T16:42:05.500Z,12.50
2017-07-27T16:44:33.004Z,9.90
2017-07-27T16:47:00.379Z,11.43
2017-07-27T16:49:27.770Z,11.60
2017-07-27T16:51:55.186Z,10.43
2017-07-27T16:54:22.567Z,10.33
2017-07-27T16:56:49.958Z,10.10
2017-07-27T16:59:17.518Z,15.00
2017-07-27T17:01:44.909Z,13.37
2017-07-27T17:04:12.299Z,15.03
2017-07-27T17:06:39.709Z,10.70
2017-07-27T17:09:07.102Z,11.53
2017-07-27T17:11:34.523Z,12.47
2017-07-27T17:14:02.087Z,14.80
2017-07-27T17:16:29.506Z,13.30
2017-07-27T17:18:56.924Z,11.67
2017-07-27T17:21:24.522Z,10.70
2017-07-27T17:23:52.827Z,11.43
2017-07-27T17:26:20.230Z,13.30
2017-07-27T17:28:47.632Z,12.57
2017-07-27T17:31:15.022Z,10.83
2017-07-27T17:33:42.418Z,10.37
2017-07-27T17:36:10.004Z,14.83
2017-07-27T17:38:37.381Z,10.80
2017-07-27T17:41:04.787Z,11.67
2017-07-27T17:43:32.501Z,12.50
2017-07-27T17:45:59.903Z,10.47
2017-07-27T17:48:27.297Z,10.97
2017-07-27T17:50:55.045Z,10.27
2017-07-27T17:53:22.462Z,12.70
2017-07-27T17:55:49.857Z,11.27
2017-07-27T17:58:17.267Z,12.43
2017-07-27T18:00:44.665Z,15.60
2017-07-27T18:03:12.059Z,16.47
2017-07-27T18:05:39.465Z,13.70
2017-07-27T18:08:06.935Z,11.90
2017-07-27T18:10:34.341Z,12.03
2017-07-27T18:13:01.746Z,13.70
2017-07-27T18:15:29.138Z,14.50
2017-07-27T18:17:56.531Z,15.43
2017-07-27T18:20:24.079Z,11.17
2017-07-27T18:22:52.191Z,11.83
2017-07-27T18:25:19.585Z,13.17
2017-07-27T18:27:47.136Z,11.30
2017-07-27T18:30:14.523Z,11.80
2017-07-27T18:32:41.906Z,10.73
2017-07-27T18:35:09.692Z,12.17
2017-07-27T18:37:37.082Z,11.87
2017-07-27T18:40:04.479Z,13.83
2017-07-27T18:42:32.263Z,11.57
2017-07-27T18:44:59.642Z,10.40
2017-07-27T18:47:27.035Z,16.00
2017-07-27T18:49:54.535Z,12.47
2017-07-27T18:52:21.927Z,11.63
2017-07-27T18:54:49.324Z,11.17
2017-07-27T18:57:16.734Z,12.60
2017-07-27T18:59:44.134Z,10.83
2017-07-27T19:02:11.518Z,10.97
2017-07-27T19:04:39.062Z,15.53
2017-07-27T19:07:06.454Z,13.07
2017-07-27T19:09:33.855Z,18.23
2017-07-27T19:12:01.347Z,9.77
2017-07-27T19:14:28.750Z,14.07
2017-07-27T19:16:56.134Z,11.87
2017-07-27T19:19:23.683Z,14.17
2017-07-27T19:21:51.076Z,11.30
2017-07-27T19:24:18.459Z,12.93
2017-07-27T19:26:45.967Z,11.53
2017-07-27T19:29:13.351Z,12.03
2017-07-27T19:31:40.739Z,10.23
2017-07-27T19:34:08.138Z,10.20
2017-07-27T19:36:35.527Z,10.53
2017-07-27T19:39:02.924Z,11.03
2017-07-27T19:41:30.651Z,10.80
2017-07-27T19:43:58.041Z,11.83
2017-07-27T19:46:25.431Z,10.60
2017-07-27T19:48:52.839Z,10.97
2017-07-27T19:51:20.230Z,11.17
2017-07-27T19:53:47.619Z,9.97
2017-07-27T19:56:15.159Z,10.47
2017-07-27T19:58:42.554Z,11.43
2017-07-27T20:01:09.951Z,10.50
2017-07-27T20:03:37.449Z,12.93
2017-07-27T20:06:04.834Z,11.93
2017-07-27T20:08:32.219Z,9.67
2017-07-27T20:11:00.187Z,10.50
2017-07-27T20:13:27.578Z,11.17
2017-07-27T20:15:54.968Z,10.50
2017-07-27T20:18:22.470Z,11.63
2017-07-27T20:20:49.867Z,11.43
2017-07-27T20:23:17.258Z,13.37
2017-07-27T20:25:45.062Z,11.23
2017-07-27T20:28:12.461Z,11.40
2017-07-27T20:30:39.844Z,11.40
2017-07-27T20:33:07.397Z,11.10
2017-07-27T20:35:34.782Z,11.53
2017-07-27T20:38:02.183Z,11.67
2017-07-27T20:40:29.779Z,10.07
2017-07-27T20:42:57.172Z,10.57
2017-07-27T20:45:24.563Z,11.20
2017-07-27T20:47:51.993Z,11.93
2017-07-27T20:50:19.377Z,10.83
2017-07-27T20:52:46.770Z,11.83
2017-07-27T20:55:14.318Z,10.30
2017-07-27T20:57:41.713Z,10.87
2017-07-27T21:00:09.094Z,10.20
2017-07-27T21:02:36.635Z,9.80
2017-07-27T21:05:04.030Z,11.90
2017-07-27T21:07:31.443Z,13.50
2017-07-27T21:09:58.942Z,11.60
2017-07-27T21:12:26.343Z,11.07
2017-07-27T21:14:53.733Z,10.73
2017-07-27T21:17:21.171Z,10.97
2017-07-27T21:19:48.557Z,11.83
2017-07-27T21:22:15.949Z,12.20
2017-07-27T21:24:43.454Z,12.17
2017-07-27T21:27:10.842Z,10.63
2017-07-27T21:29:38.237Z,11.00
2017-07-27T21:32:05.787Z,10.93
2017-07-27T21:34:33.186Z,11.03
2017-07-27T21:37:00.595Z,10.37
2017-07-27T21:39:28.098Z,16.10
2017-07-27T21:41:55.806Z,11.07
2017-07-27T21:44:23.207Z,13.03
2017-07-27T21:46:50.660Z,11.93
2017-07-27T21:49:18.054Z,14.27
2017-07-27T21:51:45.449Z,11.53
2017-07-27T21:54:12.998Z,11.00
2017-07-27T21:56:40.394Z,12.37
2017-07-27T21:59:07.789Z,12.40
2017-07-27T22:01:35.335Z,12.43
2017-07-27T22:04:02.731Z,12.57
2017-07-27T22:06:30.126Z,12.70
2017-07-27T22:08:57.555Z,18.93
2017-07-27T22:11:24.950Z,11.97
2017-07-27T22:13:52.347Z,11.53
2017-07-27T22:16:19.894Z,12.43
2017-07-27T22:18:47.286Z,12.30
2017-07-27T22:21:14.687Z,11.93
2017-07-27T22:23:42.156Z,12.77
2017-07-27T22:26:09.553Z,12.10
2017-07-27T22:28:36.958Z,12.27
2017-07-27T22:31:04.506Z,16.27
2017-07-27T22:33:31.902Z,12.33
2017-07-27T22:35:59.294Z,12.27
2017-07-27T22:38:26.702Z,13.07
2017-07-27T22:40:54.094Z,11.27
2017-07-27T22:43:21.486Z,13.10
2017-07-27T22:45:48.999Z,13.63
2017-07-27T22:48:16.386Z,12.40
2017-07-27T22:50:43.780Z,13.77
2017-07-27T22:53:11.330Z,13.73
2017-07-27T22:55:38.730Z,14.80
2017-07-27T22:58:06.143Z,15.63
2017-07-27T23:00:33.736Z,17.27
2017-07-27T23:03:01.127Z,15.30
2017-07-27T23:05:28.526Z,14.50
2017-07-27T23:07:55.942Z,15.77
2017-07-27T23:10:23.347Z,14.17
2017-07-27T23:12:50.743Z,14.07
2017-07-27T23:15:18.157Z,18.03
2017-07-27T23:17:45.555Z,14.67
2017-07-27T23:20:12.947Z,18.30
2017-07-27T23:22:40.715Z,17.33
2017-07-27T23:25:08.112Z,16.60
2017-07-27T23:27:35.494Z,12.57
2017-07-27T23:30:02.995Z,13.97
2017-07-27T23:32:30.383Z,14.07
2017-07-27T23:34:57.784Z,11.87
2017-07-27T23:37:25.209Z,12.00
2017-07-27T23:39:52.595Z,15.70
2017-07-27T23:42:19.993Z,13.70
2017-07-27T23:44:47.404Z,12.70
2017-07-27T23:47:14.802Z,13.43
2017-07-27T23:49:42.197Z,15.00
2017-07-27T23:52:09.846Z,14.70
2017-07-27T23:54:37.233Z,16.17
2017-07-27T23:57:04.617Z,14.10
2017-07-27T23:59:32.428Z,16.00
